Historique des mesures à Cassis (13260), France
Quotidien Résumé Avril 7, 2018 Unités:  Métrique    US   Métrique/US
« Précédent (Jour)
Suivant (Jour) »
Quotidien Hebdomadaire Mensuel Annuel Période au choix
  Maximum: Minimum: Moyenne:
Température: TemperatureC °C 13.6 °C 17.6 °C
Point de rosée: DewpointC °C 4.6 °C 6.3 °C
Humidité: Humidity % 37 % 45 %
Vitesse du vent: 0 km/h 0 km/h 9.2 km/h
Rafales: 0 km/h - -
Vent:- - SE
Pression: PressurehPa hPa 1006.7 hPa -
Précipitations: 0.0 mm    
Historical Graphs
 
 
Mesures pour : Avril 7, 2018
Heure Temperature Point de rosée Pression Vent Vitesse du vent Rafales Humidité Pluie (par heure) Conditions
TemperatureC °C DewpointC °C PressurehPa hPa Calm     Humidity % HourlyPrecipMM mm SoftwareType W/m2
00:11 13.6 °C 9.0 °C 1012.4 hPa Calm   2.9 km/h 74 % 0.0 mm open2300-1.11 W/m2
01:11 14.1 °C 7.6 °C 1012.1 hPa Calm   6.4 km/h 65 % 0.0 mm open2300-1.11 W/m2
02:11 14.1 °C 6.2 °C 1012.4 hPa Calm   3.4 km/h 59 % 0.0 mm open2300-1.11 W/m2
03:11 14.1 °C 6.0 °C 1012.1 hPa Calm     58 % 0.0 mm open2300-1.11 W/m2
04:10 14.9 °C 5.7 °C 1011.7 hPa ENE 5.1 km/h 5.1 km/h 54 % 0.0 mm open2300-1.11 W/m2
05:10 15.9 °C 5.5 °C 1011.4 hPa ESE 5.6 km/h 5.6 km/h 50 % 0.0 mm open2300-1.11 W/m2
06:10 16.4 °C 4.7 °C 1011.4 hPa ESE 4.2 km/h 7.6 km/h 46 % 0.0 mm open2300-1.11 W/m2
07:10 16.3 °C 4.6 °C 1011.7 hPa Calm   4.7 km/h 46 % 0.0 mm open2300-1.11 W/m2
08:10 16.3 °C 4.9 °C 1011.7 hPa Calm     47 % 0.0 mm open2300-1.11 W/m2
09:12 16.8 °C 5.7 °C 1011.1 hPa SE 5.1 km/h 5.1 km/h 48 % 0.0 mm open2300-1.11 W/m2
10:12 17.8 °C 6.3 °C 1011.4 hPa SSE 9.3 km/h 9.3 km/h 47 % 0.0 mm open2300-1.11 W/m2
11:12 19.6 °C 7.3 °C 1011.4 hPa SSW 17.9 km/h 24.8 km/h 45 % 0.0 mm open2300-1.11 W/m2
12:12 21.3 °C 8.2 °C 1010.7 hPa ESE 22.5 km/h 22.5 km/h 43 % 0.0 mm open2300-1.11 W/m2
13:11 22.2 °C 9.0 °C 1009.7 hPa SSE 25.4 km/h 26.2 km/h 43 % 0.0 mm open2300-1.11 W/m2
14:11 22.6 °C 8.3 °C 1008.7 hPa ESE 14 km/h 14 km/h 40 % 0.0 mm open2300-1.11 W/m2
15:11 22.5 °C 8.2 °C 1009.0 hPa ESE 5.6 km/h 14.5 km/h 40 % 0.0 mm open2300-1.11 W/m2
16:11 22.1 °C 7.5 °C 1008.7 hPa ESE 15 km/h 16.9 km/h 39 % 0.0 mm open2300-1.11 W/m2
17:11 21.6 °C 6.2 °C 1008.0 hPa ESE 22.5 km/h 22.5 km/h 37 % 0.0 mm open2300-1.11 W/m2
18:11 21.3 °C 6.8 °C 1007.7 hPa ESE 17.4 km/h 17.4 km/h 39 % 0.0 mm open2300-1.11 W/m2
19:11 20.3 °C 6.3 °C 1007.3 hPa SE 20.3 km/h 20.3 km/h 40 % 0.0 mm open2300-1.11 W/m2
20:11 19.6 °C 6.0 °C 1006.7 hPa East 9.8 km/h 16.3 km/h 41 % 0.0 mm open2300-1.11 W/m2
21:10 18.9 °C 6.0 °C 1006.7 hPa SE 6.9 km/h 10.3 km/h 43 % 0.0 mm open2300-1.11 W/m2
22:10 18.7 °C 6.1 °C 1007.0 hPa SE 5.1 km/h 5.1 km/h 44 % 0.0 mm open2300-1.11 W/m2
23:10 18.5 °C 6.3 °C 1006.7 hPa SE 17.9 km/h 20.3 km/h 45 % 0.0 mm open2300-1.11 W/m2
Observations météo à CASSIS
WU-History script by Weather Underground - 1 mb